Accueil
Images satellite Prévisions 10 joursClimatMétéo marine Cyclones Foudre AéroportsFAQ Actualités A propos
Météo : Europe Afrique Amérique du Nord Amérique du Sud Asie Australie-Océanie Autres
Langues Contact

Bergerac, France

Roumanière

latitude: 44-49N, longitude: 000-31E, altitude: 51 m


METAR: LFBE 020000Z AUTO VRB01KT 9999 NSC M03/M04 Q1010
TAF: LFBE 011400Z 0115/0124 31010G20KT 9999 SCT050 PROB30 TEMPO 0115/0118 5000 SHRA SCT030TCU BECMG 0119/0121 25005KT

Heure: 01:10 (00:10 UTC)

Observation

Le bulletin a été fait il y a 10 minutes, à 00:00 UTC
Vent 1 kt de direction variable
Température -3°C
Humidité 93%
Pression 1010 hPa
Visibilité 10 km ou plus

Changer d'unités

Prévision

Le bulletin a été fait il y a 10 heures et 10 minutes, à 14:00 UTC
Prévision valable du 01 à 15 UTC au 01 à 24 UTC
Vent 10 kt de nord-ouest avec des rafales jusqu'à 20 kt
Visibilité 10 km ou plus
Nuages épars à une hauteur de 5000 ft
Probabilité 30% :
Temporairement
du 01 à 15 UTC au 01 à 18 UTC
Visibilité: 5000 m
Nuages épars à une hauteur de 3000 ft, Cumulus congestus.
averses de pluie
Evoluant progressivement
du 01 à 19 UTC au 01 à 21 UTC
Vent 5 kt de ouest/sud-ouest
Les informations qui figurent sur ce site font l'objet d'une clause de non-responsabilité
Météo : Europe Afrique Amérique du Nord Amérique du Sud Asie Australie-Océanie Autres
Images satellite Prévisions 10 joursClimatMétéo marine Cyclones Foudre AéroportsFAQ Langues Contact Actualités A propos